sensor_id;sensor_type;location;lat;lon;timestamp;temperature;humidity
24744;DHT22;12844;52.110;5.548;2024-03-29T00:00:03;18.60;58.70
24744;DHT22;12844;52.110;5.548;2024-03-29T00:02:29;18.70;58.80
24744;DHT22;12844;52.110;5.548;2024-03-29T00:04:55;18.70;58.80
24744;DHT22;12844;52.110;5.548;2024-03-29T00:07:20;18.60;58.70
24744;DHT22;12844;52.110;5.548;2024-03-29T00:09:46;18.60;58.70
24744;DHT22;12844;52.110;5.548;2024-03-29T00:12:11;18.60;58.70
24744;DHT22;12844;52.110;5.548;2024-03-29T00:14:37;18.60;58.70
24744;DHT22;12844;52.110;5.548;2024-03-29T00:17:03;18.60;58.70
24744;DHT22;12844;52.110;5.548;2024-03-29T00:19:29;18.60;58.70
24744;DHT22;12844;52.110;5.548;2024-03-29T00:21:55;18.60;58.70
24744;DHT22;12844;52.110;5.548;2024-03-29T00:24:21;18.60;58.70
24744;DHT22;12844;52.110;5.548;2024-03-29T00:26:46;18.60;58.60
24744;DHT22;12844;52.110;5.548;2024-03-29T00:29:12;18.60;59.20
24744;DHT22;12844;52.110;5.548;2024-03-29T00:31:37;18.60;58.60
24744;DHT22;12844;52.110;5.548;2024-03-29T00:34:03;18.60;58.60
24744;DHT22;12844;52.110;5.548;2024-03-29T00:36:29;18.60;58.60
24744;DHT22;12844;52.110;5.548;2024-03-29T00:38:54;18.60;58.60
24744;DHT22;12844;52.110;5.548;2024-03-29T00:41:20;18.50;58.50
24744;DHT22;12844;52.110;5.548;2024-03-29T00:43:45;18.50;58.50
24744;DHT22;12844;52.110;5.548;2024-03-29T00:46:11;18.50;58.50
24744;DHT22;12844;52.110;5.548;2024-03-29T00:48:36;18.50;58.50
24744;DHT22;12844;52.110;5.548;2024-03-29T00:51:02;18.50;58.50
24744;DHT22;12844;52.110;5.548;2024-03-29T00:53:28;18.50;58.40
24744;DHT22;12844;52.110;5.548;2024-03-29T00:55:53;18.50;58.40
24744;DHT22;12844;52.110;5.548;2024-03-29T00:58:19;18.50;58.40
24744;DHT22;12844;52.110;5.548;2024-03-29T01:00:45;18.50;58.40
24744;DHT22;12844;52.110;5.548;2024-03-29T01:03:11;18.50;58.40
24744;DHT22;12844;52.110;5.548;2024-03-29T01:05:36;18.50;58.30
24744;DHT22;12844;52.110;5.548;2024-03-29T01:08:04;18.50;58.30
24744;DHT22;12844;52.110;5.548;2024-03-29T01:10:29;18.50;58.40
24744;DHT22;12844;52.110;5.548;2024-03-29T01:12:55;18.50;58.40
24744;DHT22;12844;52.110;5.548;2024-03-29T01:15:21;18.50;58.30
24744;DHT22;12844;52.110;5.548;2024-03-29T01:17:46;18.50;58.40
24744;DHT22;12844;52.110;5.548;2024-03-29T01:20:12;18.50;58.30
24744;DHT22;12844;52.110;5.548;2024-03-29T01:22:38;18.50;58.30
24744;DHT22;12844;52.110;5.548;2024-03-29T01:25:04;18.50;58.30
24744;DHT22;12844;52.110;5.548;2024-03-29T01:27:33;18.40;58.30
24744;DHT22;12844;52.110;5.548;2024-03-29T01:29:59;18.40;58.20
24744;DHT22;12844;52.110;5.548;2024-03-29T01:32:24;18.40;58.20
24744;DHT22;12844;52.110;5.548;2024-03-29T01:34:50;18.40;58.30
24744;DHT22;12844;52.110;5.548;2024-03-29T01:37:15;18.40;58.20
24744;DHT22;12844;52.110;5.548;2024-03-29T01:39:41;18.40;58.20
24744;DHT22;12844;52.110;5.548;2024-03-29T01:42:07;18.40;58.20
24744;DHT22;12844;52.110;5.548;2024-03-29T01:44:32;18.40;58.10
24744;DHT22;12844;52.110;5.548;2024-03-29T01:46:58;18.40;58.00
24744;DHT22;12844;52.110;5.548;2024-03-29T01:49:24;18.40;58.00
24744;DHT22;12844;52.110;5.548;2024-03-29T01:51:50;18.40;58.60
24744;DHT22;12844;52.110;5.548;2024-03-29T01:54:16;18.40;57.90
24744;DHT22;12844;52.110;5.548;2024-03-29T01:56:42;18.40;58.50
24744;DHT22;12844;52.110;5.548;2024-03-29T01:59:14;18.40;57.90
24744;DHT22;12844;52.110;5.548;2024-03-29T02:01:41;18.40;57.90
24744;DHT22;12844;52.110;5.548;2024-03-29T02:04:08;18.40;57.90
24744;DHT22;12844;52.110;5.548;2024-03-29T02:06:35;18.40;57.90
24744;DHT22;12844;52.110;5.548;2024-03-29T02:09:00;18.40;57.90
24744;DHT22;12844;52.110;5.548;2024-03-29T02:11:26;18.40;57.90
24744;DHT22;12844;52.110;5.548;2024-03-29T02:13:52;18.40;57.90
24744;DHT22;12844;52.110;5.548;2024-03-29T02:16:18;18.40;57.80
24744;DHT22;12844;52.110;5.548;2024-03-29T02:18:43;18.40;57.80
24744;DHT22;12844;52.110;5.548;2024-03-29T02:21:09;18.40;57.80
24744;DHT22;12844;52.110;5.548;2024-03-29T02:23:37;18.40;57.80
24744;DHT22;12844;52.110;5.548;2024-03-29T02:26:05;18.30;57.80
24744;DHT22;12844;52.110;5.548;2024-03-29T02:28:31;18.30;57.80
24744;DHT22;12844;52.110;5.548;2024-03-29T02:30:57;18.30;57.70
24744;DHT22;12844;52.110;5.548;2024-03-29T02:33:23;18.30;57.70
24744;DHT22;12844;52.110;5.548;2024-03-29T02:35:48;18.30;58.30
24744;DHT22;12844;52.110;5.548;2024-03-29T02:38:14;18.30;57.70
24744;DHT22;12844;52.110;5.548;2024-03-29T02:40:39;18.30;57.70
24744;DHT22;12844;52.110;5.548;2024-03-29T02:43:05;18.30;57.70
24744;DHT22;12844;52.110;5.548;2024-03-29T02:45:31;18.30;57.70
24744;DHT22;12844;52.110;5.548;2024-03-29T02:47:56;18.30;57.70
24744;DHT22;12844;52.110;5.548;2024-03-29T02:50:22;18.30;57.70
24744;DHT22;12844;52.110;5.548;2024-03-29T02:52:48;18.30;57.70
24744;DHT22;12844;52.110;5.548;2024-03-29T02:55:13;18.30;57.70
24744;DHT22;12844;52.110;5.548;2024-03-29T02:57:39;18.20;57.70
24744;DHT22;12844;52.110;5.548;2024-03-29T03:00:06;18.20;57.70
24744;DHT22;12844;52.110;5.548;2024-03-29T03:02:33;18.20;57.60
24744;DHT22;12844;52.110;5.548;2024-03-29T03:05:02;18.20;57.60
24744;DHT22;12844;52.110;5.548;2024-03-29T03:07:28;18.20;57.60
24744;DHT22;12844;52.110;5.548;2024-03-29T03:10:12;18.20;57.60
24744;DHT22;12844;52.110;5.548;2024-03-29T03:12:56;18.20;57.60
24744;DHT22;12844;52.110;5.548;2024-03-29T03:15:22;18.20;57.60
24744;DHT22;12844;52.110;5.548;2024-03-29T03:17:47;18.20;57.60
24744;DHT22;12844;52.110;5.548;2024-03-29T03:20:13;18.20;57.60
24744;DHT22;12844;52.110;5.548;2024-03-29T03:22:41;18.20;57.70
24744;DHT22;12844;52.110;5.548;2024-03-29T03:25:06;18.10;57.60
24744;DHT22;12844;52.110;5.548;2024-03-29T03:27:32;18.10;57.60
24744;DHT22;12844;52.110;5.548;2024-03-29T03:29:58;18.20;57.60
24744;DHT22;12844;52.110;5.548;2024-03-29T03:32:23;18.20;57.50
24744;DHT22;12844;52.110;5.548;2024-03-29T03:34:49;18.20;57.60
24744;DHT22;12844;52.110;5.548;2024-03-29T03:37:14;18.20;57.50
24744;DHT22;12844;52.110;5.548;2024-03-29T03:39:40;18.10;57.40
24744;DHT22;12844;52.110;5.548;2024-03-29T03:42:06;18.10;57.50
24744;DHT22;12844;52.110;5.548;2024-03-29T03:44:31;18.10;57.50
24744;DHT22;12844;52.110;5.548;2024-03-29T03:46:57;18.10;57.40
24744;DHT22;12844;52.110;5.548;2024-03-29T03:49:22;18.10;57.50
24744;DHT22;12844;52.110;5.548;2024-03-29T03:51:48;18.10;57.40
24744;DHT22;12844;52.110;5.548;2024-03-29T03:54:13;18.10;57.40
24744;DHT22;12844;52.110;5.548;2024-03-29T03:56:39;18.10;57.40
24744;DHT22;12844;52.110;5.548;2024-03-29T03:59:05;18.10;57.40
24744;DHT22;12844;52.110;5.548;2024-03-29T04:01:30;18.10;57.40
24744;DHT22;12844;52.110;5.548;2024-03-29T04:03:56;18.10;57.40
24744;DHT22;12844;52.110;5.548;2024-03-29T04:06:21;18.10;57.40
24744;DHT22;12844;52.110;5.548;2024-03-29T04:08:47;18.10;57.40
24744;DHT22;12844;52.110;5.548;2024-03-29T04:11:13;18.10;57.40
24744;DHT22;12844;52.110;5.548;2024-03-29T04:13:38;18.10;57.40
24744;DHT22;12844;52.110;5.548;2024-03-29T04:16:06;18.10;57.40
24744;DHT22;12844;52.110;5.548;2024-03-29T04:18:33;18.10;57.30
24744;DHT22;12844;52.110;5.548;2024-03-29T04:21:02;18.00;57.30
24744;DHT22;12844;52.110;5.548;2024-03-29T04:23:28;18.10;57.30
24744;DHT22;12844;52.110;5.548;2024-03-29T04:25:55;18.00;57.20
24744;DHT22;12844;52.110;5.548;2024-03-29T04:28:21;18.00;57.20
24744;DHT22;12844;52.110;5.548;2024-03-29T04:31:00;18.00;57.30
24744;DHT22;12844;52.110;5.548;2024-03-29T04:33:26;18.10;57.80
24744;DHT22;12844;52.110;5.548;2024-03-29T04:36:03;18.00;57.30
24744;DHT22;12844;52.110;5.548;2024-03-29T04:38:30;18.00;57.20
24744;DHT22;12844;52.110;5.548;2024-03-29T04:40:57;18.00;57.20
24744;DHT22;12844;52.110;5.548;2024-03-29T04:43:24;18.00;57.20
24744;DHT22;12844;52.110;5.548;2024-03-29T04:45:50;18.00;57.00
24744;DHT22;12844;52.110;5.548;2024-03-29T04:48:16;18.00;57.00
24744;DHT22;12844;52.110;5.548;2024-03-29T04:50:42;18.00;57.10
24744;DHT22;12844;52.110;5.548;2024-03-29T04:53:08;18.00;57.00
24744;DHT22;12844;52.110;5.548;2024-03-29T04:55:34;18.00;57.10
24744;DHT22;12844;52.110;5.548;2024-03-29T04:58:01;18.00;57.00
24744;DHT22;12844;52.110;5.548;2024-03-29T05:00:26;17.90;57.00
24744;DHT22;12844;52.110;5.548;2024-03-29T05:02:52;17.90;57.00
24744;DHT22;12844;52.110;5.548;2024-03-29T05:05:18;18.00;56.90
24744;DHT22;12844;52.110;5.548;2024-03-29T05:07:43;17.90;56.90
24744;DHT22;12844;52.110;5.548;2024-03-29T05:10:09;17.90;56.90
24744;DHT22;12844;52.110;5.548;2024-03-29T05:12:38;17.90;56.90
24744;DHT22;12844;52.110;5.548;2024-03-29T05:15:04;17.90;56.90
24744;DHT22;12844;52.110;5.548;2024-03-29T05:17:30;17.90;56.90
24744;DHT22;12844;52.110;5.548;2024-03-29T05:19:56;17.90;56.90
24744;DHT22;12844;52.110;5.548;2024-03-29T05:22:21;17.90;56.90
24744;DHT22;12844;52.110;5.548;2024-03-29T05:24:47;17.90;56.90
24744;DHT22;12844;52.110;5.548;2024-03-29T05:27:13;17.90;56.80
24744;DHT22;12844;52.110;5.548;2024-03-29T05:29:39;17.90;57.50
24744;DHT22;12844;52.110;5.548;2024-03-29T05:32:06;17.90;56.80
24744;DHT22;12844;52.110;5.548;2024-03-29T05:34:32;17.90;56.90
24744;DHT22;12844;52.110;5.548;2024-03-29T05:36:57;17.90;56.90
24744;DHT22;12844;52.110;5.548;2024-03-29T05:39:23;17.90;56.80
24744;DHT22;12844;52.110;5.548;2024-03-29T05:41:48;17.90;56.80
24744;DHT22;12844;52.110;5.548;2024-03-29T05:44:14;17.90;56.80
24744;DHT22;12844;52.110;5.548;2024-03-29T05:46:40;17.90;56.90
24744;DHT22;12844;52.110;5.548;2024-03-29T05:49:06;17.90;56.90
24744;DHT22;12844;52.110;5.548;2024-03-29T05:51:32;17.90;56.90
24744;DHT22;12844;52.110;5.548;2024-03-29T05:53:59;17.90;56.90
24744;DHT22;12844;52.110;5.548;2024-03-29T05:56:25;17.90;56.90
24744;DHT22;12844;52.110;5.548;2024-03-29T05:58:50;17.90;57.00
24744;DHT22;12844;52.110;5.548;2024-03-29T06:01:16;17.90;57.00
24744;DHT22;12844;52.110;5.548;2024-03-29T06:03:42;17.90;57.00
24744;DHT22;12844;52.110;5.548;2024-03-29T06:06:08;17.90;57.00
24744;DHT22;12844;52.110;5.548;2024-03-29T06:08:37;17.90;57.00
24744;DHT22;12844;52.110;5.548;2024-03-29T06:11:03;17.80;57.00
24744;DHT22;12844;52.110;5.548;2024-03-29T06:13:28;17.90;57.10
24744;DHT22;12844;52.110;5.548;2024-03-29T06:16:12;17.90;57.00
24744;DHT22;12844;52.110;5.548;2024-03-29T06:18:57;17.80;57.00
24744;DHT22;12844;52.110;5.548;2024-03-29T06:21:22;17.80;57.10
24744;DHT22;12844;52.110;5.548;2024-03-29T06:23:48;17.80;57.10
24744;DHT22;12844;52.110;5.548;2024-03-29T06:26:13;17.80;57.20
24744;DHT22;12844;52.110;5.548;2024-03-29T06:28:39;17.80;57.00
24744;DHT22;12844;52.110;5.548;2024-03-29T06:31:05;17.80;57.10
24744;DHT22;12844;52.110;5.548;2024-03-29T06:33:30;17.80;57.10
24744;DHT22;12844;52.110;5.548;2024-03-29T06:35:56;17.80;57.10
24744;DHT22;12844;52.110;5.548;2024-03-29T06:38:21;17.80;57.10
24744;DHT22;12844;52.110;5.548;2024-03-29T06:40:47;17.80;57.10
24744;DHT22;12844;52.110;5.548;2024-03-29T06:43:13;17.80;57.10
24744;DHT22;12844;52.110;5.548;2024-03-29T06:45:41;17.80;57.10
24744;DHT22;12844;52.110;5.548;2024-03-29T06:48:10;17.80;57.10
24744;DHT22;12844;52.110;5.548;2024-03-29T06:50:37;17.80;57.10
24744;DHT22;12844;52.110;5.548;2024-03-29T06:53:03;17.80;57.10
24744;DHT22;12844;52.110;5.548;2024-03-29T06:55:30;17.80;57.10
24744;DHT22;12844;52.110;5.548;2024-03-29T06:57:56;17.80;57.10
24744;DHT22;12844;52.110;5.548;2024-03-29T07:00:21;17.80;57.10
24744;DHT22;12844;52.110;5.548;2024-03-29T07:02:47;17.80;57.10
24744;DHT22;12844;52.110;5.548;2024-03-29T07:05:12;17.80;57.10
24744;DHT22;12844;52.110;5.548;2024-03-29T07:07:38;17.80;57.00
24744;DHT22;12844;52.110;5.548;2024-03-29T07:10:06;17.80;57.10
24744;DHT22;12844;52.110;5.548;2024-03-29T07:12:31;17.80;57.10
24744;DHT22;12844;52.110;5.548;2024-03-29T07:14:57;17.80;57.00
24744;DHT22;12844;52.110;5.548;2024-03-29T07:17:23;17.80;57.00
24744;DHT22;12844;52.110;5.548;2024-03-29T07:19:48;17.80;57.00
24744;DHT22;12844;52.110;5.548;2024-03-29T07:22:14;17.80;57.00
24744;DHT22;12844;52.110;5.548;2024-03-29T07:24:39;17.80;57.10
24744;DHT22;12844;52.110;5.548;2024-03-29T07:27:05;17.80;56.90
24744;DHT22;12844;52.110;5.548;2024-03-29T07:29:31;17.70;56.90
24744;DHT22;12844;52.110;5.548;2024-03-29T07:31:59;17.80;57.00
24744;DHT22;12844;52.110;5.548;2024-03-29T07:34:25;17.80;57.20
24744;DHT22;12844;52.110;5.548;2024-03-29T07:36:51;17.80;57.10
24744;DHT22;12844;52.110;5.548;2024-03-29T07:39:16;17.80;57.40
24744;DHT22;12844;52.110;5.548;2024-03-29T07:41:42;17.90;57.60
24744;DHT22;12844;52.110;5.548;2024-03-29T07:44:08;17.90;58.20
24744;DHT22;12844;52.110;5.548;2024-03-29T07:46:36;17.90;57.70
24744;DHT22;12844;52.110;5.548;2024-03-29T07:49:02;17.90;57.70
24744;DHT22;12844;52.110;5.548;2024-03-29T07:51:29;18.00;57.90
24744;DHT22;12844;52.110;5.548;2024-03-29T07:53:54;18.10;57.90
24744;DHT22;12844;52.110;5.548;2024-03-29T07:56:20;18.20;58.00
24744;DHT22;12844;52.110;5.548;2024-03-29T07:58:52;18.30;58.00
24744;DHT22;12844;52.110;5.548;2024-03-29T08:01:22;18.40;58.00
24744;DHT22;12844;52.110;5.548;2024-03-29T08:03:50;18.50;57.90
24744;DHT22;12844;52.110;5.548;2024-03-29T08:06:17;18.60;58.60
24744;DHT22;12844;52.110;5.548;2024-03-29T08:08:44;18.70;58.00
24744;DHT22;12844;52.110;5.548;2024-03-29T08:11:10;18.70;58.10
24744;DHT22;12844;52.110;5.548;2024-03-29T08:13:38;18.70;58.20
24744;DHT22;12844;52.110;5.548;2024-03-29T08:16:04;18.80;58.20
24744;DHT22;12844;52.110;5.548;2024-03-29T08:18:31;18.80;58.20
24744;DHT22;12844;52.110;5.548;2024-03-29T08:20:56;18.90;58.10
24744;DHT22;12844;52.110;5.548;2024-03-29T08:23:23;19.00;58.00
24744;DHT22;12844;52.110;5.548;2024-03-29T08:25:48;19.10;58.00
24744;DHT22;12844;52.110;5.548;2024-03-29T08:28:15;19.10;57.90
24744;DHT22;12844;52.110;5.548;2024-03-29T08:30:40;19.10;57.80
24744;DHT22;12844;52.110;5.548;2024-03-29T08:33:06;19.20;57.80
24744;DHT22;12844;52.110;5.548;2024-03-29T08:35:33;19.10;57.80
24744;DHT22;12844;52.110;5.548;2024-03-29T08:37:59;19.10;57.90
24744;DHT22;12844;52.110;5.548;2024-03-29T08:40:28;19.20;57.80
24744;DHT22;12844;52.110;5.548;2024-03-29T08:42:58;19.20;57.70
24744;DHT22;12844;52.110;5.548;2024-03-29T08:45:23;19.20;57.60
24744;DHT22;12844;52.110;5.548;2024-03-29T08:47:49;19.20;57.60
24744;DHT22;12844;52.110;5.548;2024-03-29T08:50:15;19.30;57.50
24744;DHT22;12844;52.110;5.548;2024-03-29T08:52:41;19.40;57.40
24744;DHT22;12844;52.110;5.548;2024-03-29T08:55:07;19.40;57.00
24744;DHT22;12844;52.110;5.548;2024-03-29T08:57:33;19.40;57.10
24744;DHT22;12844;52.110;5.548;2024-03-29T08:59:58;19.40;57.10
24744;DHT22;12844;52.110;5.548;2024-03-29T09:02:24;19.40;57.10
24744;DHT22;12844;52.110;5.548;2024-03-29T09:04:49;19.40;57.00
24744;DHT22;12844;52.110;5.548;2024-03-29T09:07:15;19.50;57.00
24744;DHT22;12844;52.110;5.548;2024-03-29T09:09:41;19.50;57.10
24744;DHT22;12844;52.110;5.548;2024-03-29T09:12:10;19.50;57.00
24744;DHT22;12844;52.110;5.548;2024-03-29T09:14:36;19.50;57.00
24744;DHT22;12844;52.110;5.548;2024-03-29T09:17:01;19.50;57.10
24744;DHT22;12844;52.110;5.548;2024-03-29T09:19:28;19.50;57.20
24744;DHT22;12844;52.110;5.548;2024-03-29T09:21:55;19.50;57.20
24744;DHT22;12844;52.110;5.548;2024-03-29T09:24:21;19.60;57.10
24744;DHT22;12844;52.110;5.548;2024-03-29T09:26:49;19.60;57.10
24744;DHT22;12844;52.110;5.548;2024-03-29T09:29:14;19.60;56.90
24744;DHT22;12844;52.110;5.548;2024-03-29T09:31:41;19.70;57.00
24744;DHT22;12844;52.110;5.548;2024-03-29T09:34:07;19.70;57.00
24744;DHT22;12844;52.110;5.548;2024-03-29T09:36:32;19.70;57.10
24744;DHT22;12844;52.110;5.548;2024-03-29T09:38:58;19.80;57.10
24744;DHT22;12844;52.110;5.548;2024-03-29T09:41:25;19.80;57.00
24744;DHT22;12844;52.110;5.548;2024-03-29T09:43:53;19.90;56.80
24744;DHT22;12844;52.110;5.548;2024-03-29T09:46:20;19.90;56.70
24744;DHT22;12844;52.110;5.548;2024-03-29T09:48:47;20.00;56.40
24744;DHT22;12844;52.110;5.548;2024-03-29T09:51:14;20.10;56.40
24744;DHT22;12844;52.110;5.548;2024-03-29T09:53:42;20.20;56.10
24744;DHT22;12844;52.110;5.548;2024-03-29T09:56:08;20.30;55.90
24744;DHT22;12844;52.110;5.548;2024-03-29T09:58:35;20.30;55.90
24744;DHT22;12844;52.110;5.548;2024-03-29T10:01:06;20.30;55.90
24744;DHT22;12844;52.110;5.548;2024-03-29T10:03:39;20.30;55.90
24744;DHT22;12844;52.110;5.548;2024-03-29T10:06:05;20.20;55.90
24744;DHT22;12844;52.110;5.548;2024-03-29T10:08:34;20.20;55.90
24744;DHT22;12844;52.110;5.548;2024-03-29T10:11:00;20.20;56.00
24744;DHT22;12844;52.110;5.548;2024-03-29T10:13:26;20.20;55.90
24744;DHT22;12844;52.110;5.548;2024-03-29T10:15:56;20.20;55.80
24744;DHT22;12844;52.110;5.548;2024-03-29T10:18:27;20.20;56.00
24744;DHT22;12844;52.110;5.548;2024-03-29T10:21:08;20.20;55.80
24744;DHT22;12844;52.110;5.548;2024-03-29T10:23:35;20.40;55.60
24744;DHT22;12844;52.110;5.548;2024-03-29T10:26:04;20.30;55.60
24744;DHT22;12844;52.110;5.548;2024-03-29T10:28:34;20.20;55.70
24744;DHT22;12844;52.110;5.548;2024-03-29T10:31:05;20.30;55.60
24744;DHT22;12844;52.110;5.548;2024-03-29T10:33:33;20.30;55.50
24744;DHT22;12844;52.110;5.548;2024-03-29T10:36:00;20.40;55.70
24744;DHT22;12844;52.110;5.548;2024-03-29T10:38:27;20.50;55.50
24744;DHT22;12844;52.110;5.548;2024-03-29T10:40:53;20.50;55.20
24744;DHT22;12844;52.110;5.548;2024-03-29T10:43:20;20.50;55.10
24744;DHT22;12844;52.110;5.548;2024-03-29T10:45:49;20.60;55.00
24744;DHT22;12844;52.110;5.548;2024-03-29T10:48:16;20.90;54.60
24744;DHT22;12844;52.110;5.548;2024-03-29T10:50:43;21.10;54.10
24744;DHT22;12844;52.110;5.548;2024-03-29T10:53:09;21.50;53.60
24744;DHT22;12844;52.110;5.548;2024-03-29T10:55:37;22.00;52.70
24744;DHT22;12844;52.110;5.548;2024-03-29T10:58:05;22.60;51.30
24744;DHT22;12844;52.110;5.548;2024-03-29T11:00:37;23.00;50.60
24744;DHT22;12844;52.110;5.548;2024-03-29T11:03:40;23.40;49.80
24744;DHT22;12844;52.110;5.548;2024-03-29T11:06:12;23.70;48.70
24744;DHT22;12844;52.110;5.548;2024-03-29T11:08:39;23.70;48.60
24744;DHT22;12844;52.110;5.548;2024-03-29T11:11:12;23.60;48.70
24744;DHT22;12844;52.110;5.548;2024-03-29T11:16:11;23.00;50.20
24744;DHT22;12844;52.110;5.548;2024-03-29T11:18:37;22.60;50.20
24744;DHT22;12844;52.110;5.548;2024-03-29T11:21:04;22.20;50.80
24744;DHT22;12844;52.110;5.548;2024-03-29T11:23:32;21.80;51.60
24744;DHT22;12844;52.110;5.548;2024-03-29T11:25:58;21.60;53.00
24744;DHT22;12844;52.110;5.548;2024-03-29T11:28:32;21.60;52.40
24744;DHT22;12844;52.110;5.548;2024-03-29T11:31:07;21.70;52.40
24744;DHT22;12844;52.110;5.548;2024-03-29T11:33:44;21.80;52.30
24744;DHT22;12844;52.110;5.548;2024-03-29T11:36:13;21.90;52.10
24744;DHT22;12844;52.110;5.548;2024-03-29T11:38:39;21.90;52.60
24744;DHT22;12844;52.110;5.548;2024-03-29T11:41:16;21.90;52.00
24744;DHT22;12844;52.110;5.548;2024-03-29T11:43:43;21.90;52.10
24744;DHT22;12844;52.110;5.548;2024-03-29T11:46:10;21.90;52.10
24744;DHT22;12844;52.110;5.548;2024-03-29T11:48:37;21.80;52.00
24744;DHT22;12844;52.110;5.548;2024-03-29T11:51:04;21.80;52.30
24744;DHT22;12844;52.110;5.548;2024-03-29T11:53:30;21.80;52.20
24744;DHT22;12844;52.110;5.548;2024-03-29T11:56:00;21.80;52.10
24744;DHT22;12844;52.110;5.548;2024-03-29T11:58:27;21.70;52.10
24744;DHT22;12844;52.110;5.548;2024-03-29T12:00:54;21.60;52.30
24744;DHT22;12844;52.110;5.548;2024-03-29T12:03:21;21.50;52.40
24744;DHT22;12844;52.110;5.548;2024-03-29T12:05:49;21.40;52.60
24744;DHT22;12844;52.110;5.548;2024-03-29T12:08:16;21.40;52.60
24744;DHT22;12844;52.110;5.548;2024-03-29T12:10:41;21.40;52.70
24744;DHT22;12844;52.110;5.548;2024-03-29T12:13:08;21.30;52.70
24744;DHT22;12844;52.110;5.548;2024-03-29T12:15:34;21.20;53.50
24744;DHT22;12844;52.110;5.548;2024-03-29T12:18:01;21.00;53.20
24744;DHT22;12844;52.110;5.548;2024-03-29T12:20:32;20.90;53.40
24744;DHT22;12844;52.110;5.548;2024-03-29T12:23:05;20.70;53.80
24744;DHT22;12844;52.110;5.548;2024-03-29T12:25:36;20.60;54.10
24744;DHT22;12844;52.110;5.548;2024-03-29T12:28:01;20.40;54.50
24744;DHT22;12844;52.110;5.548;2024-03-29T12:30:29;20.40;54.80
24744;DHT22;12844;52.110;5.548;2024-03-29T12:33:08;20.40;54.80
24744;DHT22;12844;52.110;5.548;2024-03-29T12:35:41;20.30;54.80
24744;DHT22;12844;52.110;5.548;2024-03-29T12:38:10;20.30;54.90
24744;DHT22;12844;52.110;5.548;2024-03-29T12:40:36;20.30;54.90
24744;DHT22;12844;52.110;5.548;2024-03-29T12:43:07;20.20;55.00
24744;DHT22;12844;52.110;5.548;2024-03-29T12:45:36;20.30;55.00
24744;DHT22;12844;52.110;5.548;2024-03-29T12:48:02;20.30;54.90
24744;DHT22;12844;52.110;5.548;2024-03-29T12:50:32;20.30;54.90
24744;DHT22;12844;52.110;5.548;2024-03-29T12:53:00;20.30;54.70
24744;DHT22;12844;52.110;5.548;2024-03-29T12:55:27;20.30;54.90
24744;DHT22;12844;52.110;5.548;2024-03-29T12:57:56;20.20;54.90
24744;DHT22;12844;52.110;5.548;2024-03-29T13:00:22;20.20;55.00
24744;DHT22;12844;52.110;5.548;2024-03-29T13:02:49;20.20;55.00
24744;DHT22;12844;52.110;5.548;2024-03-29T13:05:15;20.20;55.10
24744;DHT22;12844;52.110;5.548;2024-03-29T13:07:40;20.30;55.00
24744;DHT22;12844;52.110;5.548;2024-03-29T13:10:07;20.30;54.90
24744;DHT22;12844;52.110;5.548;2024-03-29T13:12:40;20.30;55.00
24744;DHT22;12844;52.110;5.548;2024-03-29T13:15:16;20.20;55.00
24744;DHT22;12844;52.110;5.548;2024-03-29T13:17:42;20.20;54.90
24744;DHT22;12844;52.110;5.548;2024-03-29T13:20:08;20.20;55.00
24744;DHT22;12844;52.110;5.548;2024-03-29T13:22:35;20.20;55.00
24744;DHT22;12844;52.110;5.548;2024-03-29T13:25:01;20.20;55.00
24744;DHT22;12844;52.110;5.548;2024-03-29T13:27:26;20.20;55.00
24744;DHT22;12844;52.110;5.548;2024-03-29T13:29:52;20.20;55.00
24744;DHT22;12844;52.110;5.548;2024-03-29T13:32:18;20.20;55.00
24744;DHT22;12844;52.110;5.548;2024-03-29T13:34:44;20.20;55.60
24744;DHT22;12844;52.110;5.548;2024-03-29T13:37:09;20.20;55.00
24744;DHT22;12844;52.110;5.548;2024-03-29T13:39:35;20.30;55.00
24744;DHT22;12844;52.110;5.548;2024-03-29T13:42:00;20.30;54.90
24744;DHT22;12844;52.110;5.548;2024-03-29T13:44:26;20.20;55.00
24744;DHT22;12844;52.110;5.548;2024-03-29T13:46:51;20.20;55.10
24744;DHT22;12844;52.110;5.548;2024-03-29T13:49:18;20.30;55.00
24744;DHT22;12844;52.110;5.548;2024-03-29T13:51:46;20.20;55.00
24744;DHT22;12844;52.110;5.548;2024-03-29T13:54:12;20.30;55.00
24744;DHT22;12844;52.110;5.548;2024-03-29T13:56:38;20.30;55.00
24744;DHT22;12844;52.110;5.548;2024-03-29T13:59:03;20.30;55.00
24744;DHT22;12844;52.110;5.548;2024-03-29T14:01:29;20.30;54.90
24744;DHT22;12844;52.110;5.548;2024-03-29T14:03:55;20.20;55.00
24744;DHT22;12844;52.110;5.548;2024-03-29T14:06:21;20.20;55.00
24744;DHT22;12844;52.110;5.548;2024-03-29T14:08:47;20.20;55.10
24744;DHT22;12844;52.110;5.548;2024-03-29T14:11:13;20.20;55.10
24744;DHT22;12844;52.110;5.548;2024-03-29T14:13:40;20.20;55.00
24744;DHT22;12844;52.110;5.548;2024-03-29T14:16:05;20.20;55.10
24744;DHT22;12844;52.110;5.548;2024-03-29T14:18:31;20.20;55.10
24744;DHT22;12844;52.110;5.548;2024-03-29T14:20:57;20.10;55.20
24744;DHT22;12844;52.110;5.548;2024-03-29T14:23:23;20.10;55.20
24744;DHT22;12844;52.110;5.548;2024-03-29T14:25:50;20.10;55.20
24744;DHT22;12844;52.110;5.548;2024-03-29T14:28:16;20.10;55.20
24744;DHT22;12844;52.110;5.548;2024-03-29T14:30:42;20.10;55.20
24744;DHT22;12844;52.110;5.548;2024-03-29T14:33:08;20.10;55.20
24744;DHT22;12844;52.110;5.548;2024-03-29T14:35:36;20.00;55.20
24744;DHT22;12844;52.110;5.548;2024-03-29T14:38:02;20.00;55.20
24744;DHT22;12844;52.110;5.548;2024-03-29T14:40:28;20.00;55.40
24744;DHT22;12844;52.110;5.548;2024-03-29T14:42:53;19.90;55.40
24744;DHT22;12844;52.110;5.548;2024-03-29T14:45:20;19.90;55.60
24744;DHT22;12844;52.110;5.548;2024-03-29T14:47:46;19.90;55.60
24744;DHT22;12844;52.110;5.548;2024-03-29T14:50:11;19.90;56.30
24744;DHT22;12844;52.110;5.548;2024-03-29T14:52:37;19.90;55.70
24744;DHT22;12844;52.110;5.548;2024-03-29T14:55:04;19.80;55.70
24744;DHT22;12844;52.110;5.548;2024-03-29T14:57:30;19.80;55.80
24744;DHT22;12844;52.110;5.548;2024-03-29T14:59:56;19.80;55.80
24744;DHT22;12844;52.110;5.548;2024-03-29T15:02:21;19.80;55.80
24744;DHT22;12844;52.110;5.548;2024-03-29T15:04:47;19.80;55.80
24744;DHT22;12844;52.110;5.548;2024-03-29T15:07:13;19.70;55.80
24744;DHT22;12844;52.110;5.548;2024-03-29T15:09:38;19.70;55.90
24744;DHT22;12844;52.110;5.548;2024-03-29T15:12:04;19.70;55.90
24744;DHT22;12844;52.110;5.548;2024-03-29T15:14:30;19.70;55.90
24744;DHT22;12844;52.110;5.548;2024-03-29T15:16:56;19.70;55.90
24744;DHT22;12844;52.110;5.548;2024-03-29T15:19:25;19.70;55.90
24744;DHT22;12844;52.110;5.548;2024-03-29T17:33:52;19.10;57.70
24744;DHT22;12844;52.110;5.548;2024-03-29T17:36:17;19.10;57.80
24744;DHT22;12844;52.110;5.548;2024-03-29T17:38:43;19.10;57.80
24744;DHT22;12844;52.110;5.548;2024-03-29T17:41:08;19.10;57.80